createdAt,value
2018-03-30T00:02:15.597Z,2.76
2018-03-30T00:04:42.202Z,2.66
2018-03-30T00:07:09.606Z,2.69
2018-03-30T00:09:54.586Z,2.68
2018-03-30T00:12:21.197Z,2.87
2018-03-30T00:14:48.538Z,2.91
2018-03-30T00:17:15.173Z,2.92
2018-03-30T00:19:42.585Z,2.68
2018-03-30T00:22:09.202Z,2.60
2018-03-30T00:24:35.867Z,2.49
2018-03-30T00:27:02.498Z,2.59
2018-03-30T00:29:29.091Z,2.58
2018-03-30T00:31:55.728Z,2.46
2018-03-30T00:34:22.313Z,2.59
2018-03-30T00:36:49.017Z,2.69
2018-03-30T00:39:15.632Z,2.70
2018-03-30T00:41:43.874Z,2.49
2018-03-30T00:44:10.522Z,2.40
2018-03-30T00:46:37.094Z,2.50
2018-03-30T00:49:04.434Z,2.53
2018-03-30T00:51:31.030Z,2.71
2018-03-30T00:53:57.667Z,2.63
2018-03-30T00:56:25.063Z,2.57
2018-03-30T00:58:52.409Z,2.54
2018-03-30T01:01:19.844Z,2.56
2018-03-30T01:03:47.209Z,2.39
2018-03-30T01:06:15.536Z,2.24
2018-03-30T01:08:42.866Z,2.18
2018-03-30T01:11:10.246Z,2.22
2018-03-30T01:13:37.654Z,2.19
2018-03-30T01:16:05.075Z,2.23
2018-03-30T01:18:32.419Z,2.33
2018-03-30T01:20:59.785Z,2.32
2018-03-30T01:23:27.175Z,2.14
2018-03-30T01:25:54.577Z,1.97
2018-03-30T01:28:21.905Z,1.89
2018-03-30T01:30:49.240Z,1.86
2018-03-30T01:33:16.700Z,1.91
2018-03-30T01:35:44.071Z,1.90
2018-03-30T01:38:11.387Z,2.24
2018-03-30T01:40:40.269Z,2.28
2018-03-30T01:43:07.904Z,2.19
2018-03-30T01:45:35.234Z,2.11
2018-03-30T01:48:02.624Z,1.97
2018-03-30T01:50:30.031Z,2.10
2018-03-30T01:52:57.447Z,2.26
2018-03-30T01:55:25.528Z,2.18
2018-03-30T01:57:52.852Z,2.14
2018-03-30T02:00:21.002Z,2.10
2018-03-30T02:02:48.558Z,2.04
2018-03-30T02:05:15.894Z,2.14
2018-03-30T02:07:43.260Z,2.21
2018-03-30T02:10:11.583Z,2.30
2018-03-30T02:12:38.982Z,2.36
2018-03-30T02:15:06.438Z,2.25
2018-03-30T02:17:33.874Z,2.15
2018-03-30T02:20:02.039Z,2.02
2018-03-30T02:22:29.362Z,2.14
2018-03-30T02:24:56.712Z,2.07
2018-03-30T02:27:24.703Z,2.02
2018-03-30T02:29:52.780Z,2.08
2018-03-30T02:32:20.116Z,2.09
2018-03-30T02:34:47.631Z,2.06
2018-03-30T02:37:15.002Z,2.01
2018-03-30T02:39:42.331Z,2.01
2018-03-30T02:42:09.662Z,1.94
2018-03-30T02:44:37.907Z,1.97
2018-03-30T02:47:05.290Z,1.94
2018-03-30T02:49:32.631Z,2.03
2018-03-30T02:52:00.717Z,2.07
2018-03-30T02:54:28.086Z,2.10
2018-03-30T02:56:55.651Z,2.26
2018-03-30T02:59:22.968Z,2.14
2018-03-30T03:01:50.303Z,2.06
2018-03-30T03:04:18.646Z,1.95
2018-03-30T03:06:45.983Z,1.88
2018-03-30T03:09:13.439Z,1.86
2018-03-30T03:11:40.760Z,1.84
2018-03-30T03:14:08.798Z,1.86
2018-03-30T03:16:36.174Z,1.85
2018-03-30T03:19:03.792Z,1.75
2018-03-30T03:21:31.120Z,1.71
2018-03-30T03:23:59.470Z,1.81
2018-03-30T03:26:26.806Z,1.69
2018-03-30T03:28:54.199Z,1.60
2018-03-30T03:31:22.114Z,1.46
2018-03-30T03:33:49.735Z,1.42
2018-03-30T03:36:17.094Z,1.42
2018-03-30T03:38:44.512Z,1.46
2018-03-30T03:41:11.950Z,1.49
2018-03-30T03:43:39.339Z,1.62
2018-03-30T03:46:07.460Z,1.54
2018-03-30T03:48:34.777Z,1.49
2018-03-30T03:51:02.058Z,1.48
2018-03-30T03:53:30.128Z,1.54
2018-03-30T03:55:57.569Z,1.62
2018-03-30T03:58:24.981Z,1.62
2018-03-30T04:00:52.302Z,1.61
2018-03-30T04:03:19.746Z,1.61
2018-03-30T04:05:47.067Z,1.63
2018-03-30T04:08:14.954Z,1.58
2018-03-30T04:10:42.275Z,1.43
2018-03-30T04:13:09.568Z,1.42
2018-03-30T04:15:36.895Z,1.41
2018-03-30T04:18:05.478Z,1.44
2018-03-30T04:20:33.562Z,1.53
2018-03-30T04:23:00.930Z,1.41
2018-03-30T04:25:28.330Z,1.39
2018-03-30T04:27:56.496Z,1.46
2018-03-30T04:30:23.874Z,1.47
2018-03-30T04:32:51.184Z,1.52
2018-03-30T04:35:18.773Z,1.78
2018-03-30T04:37:46.065Z,1.98
2018-03-30T04:40:13.391Z,1.86
2018-03-30T04:42:40.827Z,1.82
2018-03-30T04:45:08.223Z,1.84
2018-03-30T04:47:35.506Z,1.85
2018-03-30T04:50:02.964Z,1.80
2018-03-30T04:52:31.018Z,1.73
2018-03-30T04:54:58.378Z,2.17
2018-03-30T04:57:25.863Z,2.04
2018-03-30T04:59:53.849Z,2.12
2018-03-30T05:02:21.242Z,2.31
2018-03-30T05:04:49.650Z,2.35
2018-03-30T05:07:17.068Z,2.49
2018-03-30T05:09:44.367Z,2.66
2018-03-30T05:12:11.597Z,2.82
2018-03-30T05:14:38.805Z,3.02
2018-03-30T05:17:07.080Z,3.19
2018-03-30T05:19:36.320Z,3.32
2018-03-30T05:22:04.743Z,3.48
2018-03-30T05:24:32.082Z,3.55
2018-03-30T05:26:59.628Z,3.64
2018-03-30T05:29:28.103Z,3.70
2018-03-30T05:31:56.332Z,3.63
2018-03-30T05:34:23.726Z,3.67
2018-03-30T05:36:51.006Z,3.67
2018-03-30T05:39:20.260Z,3.71
2018-03-30T05:41:48.697Z,3.74
2018-03-30T05:44:16.009Z,4.07
2018-03-30T05:46:44.484Z,4.23
2018-03-30T05:49:11.851Z,4.31
2018-03-30T05:51:39.319Z,4.58
2018-03-30T05:54:07.722Z,4.72
2018-03-30T05:56:35.055Z,4.89
2018-03-30T05:59:03.427Z,5.00
2018-03-30T06:01:30.737Z,5.08
2018-03-30T06:03:58.801Z,5.15
2018-03-30T06:06:26.142Z,5.22
2018-03-30T06:08:54.539Z,5.31
2018-03-30T06:11:22.186Z,5.46
2018-03-30T06:13:49.506Z,5.66
2018-03-30T06:16:17.966Z,5.91
2018-03-30T06:18:45.284Z,6.29
2018-03-30T06:21:12.690Z,6.50
2018-03-30T06:23:39.985Z,6.74
2018-03-30T06:26:08.227Z,7.02
2018-03-30T06:28:35.591Z,7.31
2018-03-30T06:31:02.946Z,7.60
2018-03-30T06:33:30.310Z,7.74
2018-03-30T06:35:57.781Z,8.05
2018-03-30T06:38:25.153Z,8.25
2018-03-30T06:40:52.498Z,8.27
2018-03-30T06:43:21.256Z,8.32
2018-03-30T06:45:48.566Z,8.43
2018-03-30T06:48:16.866Z,8.39
2018-03-30T06:50:44.286Z,8.42
2018-03-30T06:53:11.774Z,8.61
2018-03-30T06:55:39.127Z,8.57
2018-03-30T06:58:06.499Z,8.82
2018-03-30T07:00:34.263Z,9.03
2018-03-30T07:03:01.661Z,9.00
2018-03-30T07:05:31.533Z,9.08
2018-03-30T07:07:58.947Z,9.15
2018-03-30T07:10:29.706Z,9.14
2018-03-30T07:12:57.064Z,9.32
2018-03-30T07:15:24.466Z,9.21
2018-03-30T07:17:52.564Z,9.41
2018-03-30T07:20:19.916Z,9.53
2018-03-30T07:22:47.293Z,9.79
2018-03-30T07:25:14.658Z,10.23
2018-03-30T07:27:42.010Z,10.92
2018-03-30T07:30:09.331Z,11.14
2018-03-30T07:32:36.707Z,11.55
2018-03-30T07:35:04.163Z,12.11
2018-03-30T07:37:31.523Z,11.93
2018-03-30T07:39:58.906Z,12.13
2018-03-30T07:42:27.361Z,12.85
2018-03-30T07:44:54.795Z,13.80
2018-03-30T07:47:22.114Z,14.06
2018-03-30T07:49:50.500Z,13.93
2018-03-30T07:52:17.840Z,13.49
2018-03-30T07:54:45.204Z,13.48
2018-03-30T07:57:13.261Z,13.73
2018-03-30T07:59:40.602Z,14.14
2018-03-30T08:02:07.951Z,14.78
2018-03-30T08:04:35.815Z,14.69
2018-03-30T08:07:03.235Z,14.72
2018-03-30T08:09:30.570Z,15.11
2018-03-30T08:11:59.370Z,15.28
2018-03-30T08:14:26.775Z,15.26
2018-03-30T08:16:54.877Z,15.53
2018-03-30T08:19:22.416Z,15.55
2018-03-30T08:21:50.649Z,15.78
2018-03-30T08:24:18.032Z,16.38
2018-03-30T08:26:45.431Z,16.75
2018-03-30T08:29:12.947Z,16.42
2018-03-30T08:31:40.320Z,15.89
2018-03-30T08:34:07.602Z,16.49
2018-03-30T08:36:34.994Z,16.97
2018-03-30T08:39:02.394Z,17.32
2018-03-30T08:41:29.794Z,16.87
2018-03-30T08:43:57.154Z,16.90
2018-03-30T08:46:24.511Z,17.58
2018-03-30T08:48:51.876Z,18.04
2018-03-30T08:51:19.272Z,17.29
2018-03-30T08:53:47.365Z,15.59
2018-03-30T08:56:14.742Z,15.36
2018-03-30T08:58:42.267Z,15.81
2018-03-30T09:01:09.690Z,16.27
2018-03-30T09:03:37.080Z,16.40
2018-03-30T09:06:04.459Z,16.58
2018-03-30T09:08:31.919Z,16.60
2018-03-30T09:10:59.294Z,16.90
2018-03-30T09:13:26.674Z,16.67
2018-03-30T09:15:54.046Z,16.06
2018-03-30T09:18:21.467Z,16.59
2018-03-30T09:20:48.801Z,16.17
2018-03-30T09:23:16.148Z,16.05
2018-03-30T09:25:43.571Z,15.63
2018-03-30T09:28:10.912Z,15.36
2018-03-30T09:30:39.036Z,14.62
2018-03-30T09:33:06.454Z,14.99
2018-03-30T09:35:33.848Z,14.76
2018-03-30T09:38:01.182Z,14.66
2018-03-30T09:40:28.640Z,14.83
2018-03-30T09:42:55.988Z,15.01
2018-03-30T09:45:23.411Z,14.90
2018-03-30T09:47:50.727Z,14.48
2018-03-30T09:50:18.116Z,14.71
2018-03-30T09:52:45.434Z,14.20
2018-03-30T09:55:12.838Z,14.21
2018-03-30T09:57:40.930Z,14.22
2018-03-30T10:00:08.310Z,14.30
2018-03-30T10:02:35.710Z,14.35
2018-03-30T10:05:03.088Z,14.10
2018-03-30T10:07:30.470Z,14.12
2018-03-30T10:09:57.857Z,14.83
2018-03-30T10:12:25.255Z,15.11
2018-03-30T10:14:52.603Z,15.22
2018-03-30T10:17:20.019Z,14.77
2018-03-30T10:19:47.367Z,15.21
2018-03-30T10:22:14.785Z,15.13
2018-03-30T10:24:42.156Z,14.54
2018-03-30T10:27:09.532Z,14.53
2018-03-30T10:29:36.876Z,14.56
2018-03-30T10:32:04.260Z,14.25
2018-03-30T10:34:31.818Z,14.43
2018-03-30T10:36:59.177Z,14.72
2018-03-30T10:39:26.577Z,14.51
2018-03-30T10:41:53.976Z,14.21
2018-03-30T10:44:21.323Z,13.88
2018-03-30T10:46:48.710Z,13.49
2018-03-30T10:49:16.050Z,12.79
2018-03-30T10:51:43.470Z,12.64
2018-03-30T10:54:10.851Z,11.98
2018-03-30T10:56:38.203Z,12.25
2018-03-30T10:59:06.335Z,12.23
2018-03-30T11:01:33.706Z,12.37
2018-03-30T11:04:01.102Z,12.50
2018-03-30T11:06:28.536Z,12.42
2018-03-30T11:08:56.128Z,12.16
2018-03-30T11:11:23.540Z,12.01
2018-03-30T11:13:51.905Z,12.08
2018-03-30T11:16:19.353Z,12.29
2018-03-30T11:18:46.710Z,12.45
2018-03-30T11:21:14.152Z,12.43
2018-03-30T11:23:41.526Z,12.58
2018-03-30T11:26:08.922Z,12.88
2018-03-30T11:28:36.278Z,12.91
2018-03-30T11:31:03.684Z,12.96
2018-03-30T11:33:31.115Z,12.92
2018-03-30T11:35:58.518Z,13.07
2018-03-30T11:38:25.839Z,12.98
2018-03-30T11:40:53.265Z,13.10
2018-03-30T11:43:20.629Z,13.45
2018-03-30T11:45:48.887Z,13.71
2018-03-30T11:48:16.255Z,13.50
2018-03-30T11:50:43.613Z,13.34
2018-03-30T11:53:11.004Z,13.47
2018-03-30T11:55:38.443Z,13.27
2018-03-30T11:58:05.869Z,13.43
2018-03-30T12:00:33.225Z,13.47
2018-03-30T12:03:00.643Z,13.71
2018-03-30T12:05:28.010Z,13.83
2018-03-30T12:07:55.501Z,14.11
2018-03-30T12:10:22.980Z,13.63
2018-03-30T12:12:50.431Z,13.36
2018-03-30T12:15:17.890Z,13.54
2018-03-30T12:17:45.436Z,13.85
2018-03-30T12:20:12.836Z,14.02
2018-03-30T12:22:40.168Z,13.86
2018-03-30T12:25:07.533Z,13.99
2018-03-30T12:27:34.977Z,13.77
2018-03-30T12:30:02.850Z,14.03
2018-03-30T12:32:30.177Z,14.12
2018-03-30T12:34:58.423Z,13.76
2018-03-30T12:37:25.767Z,13.34
2018-03-30T12:39:53.240Z,13.23
2018-03-30T12:42:20.628Z,13.31
2018-03-30T12:44:47.973Z,13.50
2018-03-30T12:47:15.367Z,13.66
2018-03-30T12:49:42.755Z,13.62
2018-03-30T12:52:10.166Z,13.36
2018-03-30T12:54:37.550Z,13.46
2018-03-30T12:57:05.550Z,13.43
2018-03-30T12:59:33.072Z,13.44
2018-03-30T13:02:00.524Z,13.60
2018-03-30T13:04:27.887Z,13.38
2018-03-30T13:06:55.446Z,13.26
2018-03-30T13:09:22.765Z,13.34
2018-03-30T13:11:50.167Z,13.30
2018-03-30T13:14:17.618Z,13.49
2018-03-30T13:16:45.057Z,13.35
2018-03-30T13:19:12.374Z,13.33
2018-03-30T13:21:40.024Z,13.45
2018-03-30T13:24:08.259Z,13.49
2018-03-30T13:26:35.659Z,13.31
2018-03-30T13:29:02.996Z,13.31
2018-03-30T13:31:31.092Z,13.41
2018-03-30T13:33:58.455Z,13.57
2018-03-30T13:36:25.805Z,13.41
2018-03-30T13:38:53.521Z,13.51
2018-03-30T13:41:20.849Z,13.55
2018-03-30T13:43:48.186Z,13.68
2018-03-30T13:46:16.359Z,13.76
2018-03-30T13:48:43.735Z,13.74
2018-03-30T13:51:21.143Z,13.46
2018-03-30T13:54:05.385Z,13.47
2018-03-30T13:56:33.632Z,13.67
2018-03-30T13:59:05.899Z,13.79
2018-03-30T14:01:36.254Z,13.54
2018-03-30T14:04:12.227Z,13.66
2018-03-30T14:07:11.202Z,13.63
2018-03-30T14:09:55.532Z,13.54
2018-03-30T14:12:37.594Z,13.58
2018-03-30T14:15:20.855Z,13.46
2018-03-30T14:20:42.992Z,13.37
2018-03-30T14:23:17.118Z,13.72
2018-03-30T14:25:48.296Z,13.79
2018-03-30T14:28:20.366Z,13.69
2018-03-30T14:31:06.307Z,13.72
2018-03-30T14:33:34.622Z,13.74
2018-03-30T14:36:22.832Z,13.73
2018-03-30T14:38:54.085Z,13.72
2018-03-30T14:41:21.557Z,13.76
2018-03-30T14:43:50.058Z,13.91
2018-03-30T14:46:34.224Z,13.81
2018-03-30T14:49:06.931Z,13.73
2018-03-30T15:05:42.224Z,14.23
2018-03-30T15:22:13.211Z,14.32
2018-03-30T15:24:45.104Z,14.34
2018-03-30T15:27:13.629Z,14.45
2018-03-30T15:43:06.827Z,14.53
2018-03-30T15:45:45.338Z,14.47
2018-03-30T15:48:16.410Z,14.45
2018-03-30T15:50:44.907Z,13.89
2018-03-30T15:53:17.252Z,12.91
2018-03-30T15:55:46.956Z,12.21
2018-03-30T15:58:15.441Z,11.61
2018-03-30T16:00:44.775Z,11.18
2018-03-30T16:03:13.534Z,10.86
2018-03-30T16:05:41.984Z,10.58
2018-03-30T16:08:10.469Z,10.48
2018-03-30T16:10:39.024Z,10.31
2018-03-30T16:13:07.517Z,10.32
2018-03-30T16:15:35.929Z,10.22
2018-03-30T16:18:04.655Z,9.98
2018-03-30T16:20:34.732Z,9.88
2018-03-30T16:23:03.063Z,9.79
2018-03-30T16:25:31.413Z,9.64
2018-03-30T16:27:59.807Z,9.47
2018-03-30T16:30:28.155Z,9.42
2018-03-30T16:32:56.501Z,9.27
2018-03-30T16:35:24.872Z,9.26
2018-03-30T16:37:51.916Z,9.34
2018-03-30T16:40:21.761Z,9.35
2018-03-30T16:42:48.706Z,9.07
2018-03-30T16:45:18.487Z,9.11
2018-03-30T16:47:48.322Z,9.09
2018-03-30T16:50:16.554Z,9.04
2018-03-30T16:52:44.902Z,9.14
2018-03-30T16:55:15.106Z,9.08
2018-03-30T16:57:43.336Z,8.95
2018-03-30T17:00:13.560Z,9.06
2018-03-30T17:02:41.822Z,8.82
2018-03-30T17:05:10.115Z,8.89
2018-03-30T17:07:38.367Z,9.04
2018-03-30T17:10:06.606Z,8.97
2018-03-30T17:12:34.819Z,8.90
2018-03-30T17:15:03.086Z,8.68
2018-03-30T17:17:31.329Z,8.71
2018-03-30T17:19:59.749Z,8.83
2018-03-30T17:22:28.049Z,8.90
2018-03-30T17:24:56.218Z,8.78
2018-03-30T17:27:24.541Z,8.63
2018-03-30T17:29:56.367Z,8.74
2018-03-30T17:32:26.037Z,8.79
2018-03-30T17:34:55.764Z,8.48
2018-03-30T17:37:24.034Z,8.45
2018-03-30T17:39:55.917Z,8.47
2018-03-30T17:42:25.670Z,8.35
2018-03-30T17:44:53.997Z,8.28
2018-03-30T17:47:22.208Z,8.42
2018-03-30T17:49:51.969Z,8.26
2018-03-30T17:52:20.236Z,8.25
2018-03-30T17:54:48.472Z,8.31
2018-03-30T17:57:16.960Z,8.42
2018-03-30T17:59:46.640Z,8.37
2018-03-30T18:02:14.908Z,8.36
2018-03-30T18:04:43.191Z,8.35
2018-03-30T18:07:11.531Z,8.31
2018-03-30T18:09:41.833Z,8.22
2018-03-30T18:12:10.050Z,8.27
2018-03-30T18:14:38.348Z,8.24
2018-03-30T18:17:08.118Z,8.19
2018-03-30T18:19:40.404Z,8.11
2018-03-30T18:22:08.679Z,7.99
2018-03-30T18:24:36.922Z,8.12
2018-03-30T18:27:07.130Z,8.14
2018-03-30T18:29:35.359Z,8.21
2018-03-30T18:32:05.548Z,8.12
2018-03-30T18:34:33.771Z,7.97
2018-03-30T18:37:02.151Z,7.99
2018-03-30T18:39:30.352Z,7.98
2018-03-30T18:41:58.602Z,8.03
2018-03-30T18:44:26.803Z,7.90
2018-03-30T18:46:54.983Z,7.94
2018-03-30T18:49:26.520Z,7.99
2018-03-30T18:51:56.276Z,7.92
2018-03-30T18:54:24.551Z,7.88
2018-03-30T18:56:52.793Z,7.81
2018-03-30T18:59:22.629Z,7.78
2018-03-30T19:01:50.833Z,7.78
2018-03-30T19:04:19.071Z,7.81
2018-03-30T19:06:47.344Z,7.77
2018-03-30T19:09:15.572Z,7.78
2018-03-30T19:11:43.814Z,7.77
2018-03-30T19:14:15.662Z,7.57
2018-03-30T19:16:45.366Z,7.46
2018-03-30T19:19:15.141Z,7.42
2018-03-30T19:21:47.119Z,7.64
2018-03-30T19:24:15.547Z,7.65
2018-03-30T19:26:43.725Z,7.44
2018-03-30T19:29:11.990Z,7.46
2018-03-30T19:31:40.260Z,7.42
2018-03-30T19:34:07.251Z,7.39
2018-03-30T19:36:37.738Z,7.30
2018-03-30T19:39:06.010Z,7.24
2018-03-30T19:41:36.702Z,7.30
2018-03-30T19:44:04.993Z,7.33
2018-03-30T19:46:33.417Z,7.30
2018-03-30T19:49:05.364Z,7.22
2018-03-30T19:51:33.624Z,7.28
2018-03-30T19:54:01.877Z,7.30
2018-03-30T19:56:28.871Z,7.29
2018-03-30T19:58:59.271Z,7.29
2018-03-30T20:01:27.537Z,7.15
2018-03-30T20:03:56.438Z,7.19
2018-03-30T20:06:26.743Z,7.07
2018-03-30T20:08:55.002Z,7.03
2018-03-30T20:11:23.387Z,6.98
2018-03-30T20:13:53.723Z,7.08
2018-03-30T20:16:21.999Z,7.04
2018-03-30T20:18:50.267Z,6.92
2018-03-30T20:21:18.554Z,6.84
2018-03-30T20:23:48.430Z,6.84
2018-03-30T20:26:16.728Z,6.74
2018-03-30T20:28:49.159Z,6.83
2018-03-30T20:31:18.950Z,6.86
2018-03-30T20:33:51.114Z,6.80
2018-03-30T20:36:19.399Z,6.78
2018-03-30T20:38:47.854Z,6.90
2018-03-30T20:41:16.177Z,6.89
2018-03-30T20:43:44.440Z,6.93
2018-03-30T20:46:12.721Z,6.97
2018-03-30T20:48:41.659Z,7.03
2018-03-30T20:51:10.527Z,7.07
2018-03-30T20:53:38.846Z,7.09
2018-03-30T20:56:07.100Z,7.07
2018-03-30T20:58:35.377Z,6.91
2018-03-30T21:01:09.212Z,6.80
2018-03-30T21:03:43.081Z,6.86
2018-03-30T21:06:11.509Z,6.78
2018-03-30T21:08:39.757Z,6.73
2018-03-30T21:11:09.566Z,6.68
2018-03-30T21:13:38.001Z,6.68
2018-03-30T21:16:06.229Z,6.66
2018-03-30T21:18:34.540Z,6.63
2018-03-30T21:21:04.881Z,6.54
2018-03-30T21:23:33.339Z,6.55
2018-03-30T21:26:03.709Z,6.56
2018-03-30T21:28:31.998Z,6.55
2018-03-30T21:31:00.468Z,6.63
2018-03-30T21:33:28.717Z,6.66
2018-03-30T21:35:58.950Z,6.67
2018-03-30T21:38:27.205Z,6.68
2018-03-30T21:40:57.105Z,6.55
2018-03-30T21:43:25.529Z,6.54
2018-03-30T21:45:53.810Z,6.55
2018-03-30T21:48:22.058Z,6.62
2018-03-30T21:50:50.324Z,6.60
2018-03-30T21:53:22.170Z,6.55
2018-03-30T21:55:50.499Z,6.62
2018-03-30T21:58:18.799Z,6.49
2018-03-30T22:00:49.088Z,6.38
2018-03-30T22:03:17.337Z,6.41
2018-03-30T22:05:49.642Z,6.34
2018-03-30T22:08:18.139Z,6.32
2018-03-30T22:10:48.194Z,6.36
2018-03-30T22:13:16.484Z,6.19
2018-03-30T22:15:44.902Z,6.15
2018-03-30T22:18:13.243Z,6.18
2018-03-30T22:20:41.567Z,6.09
2018-03-30T22:23:09.813Z,6.07
2018-03-30T22:25:39.582Z,5.99
2018-03-30T22:28:07.923Z,6.13
2018-03-30T22:30:38.371Z,5.98
2018-03-30T22:33:06.612Z,5.95
2018-03-30T22:35:36.581Z,5.93
2018-03-30T22:38:05.818Z,5.91
2018-03-30T22:40:34.394Z,5.99
2018-03-30T22:43:04.629Z,5.93
2018-03-30T22:45:32.840Z,6.11
2018-03-30T22:48:03.130Z,6.20
2018-03-30T22:50:31.378Z,6.07
2018-03-30T22:53:00.941Z,6.04
2018-03-30T22:55:29.146Z,6.01
2018-03-30T22:57:57.401Z,6.01
2018-03-30T23:00:29.034Z,6.01
2018-03-30T23:02:57.278Z,6.01
2018-03-30T23:05:25.999Z,6.01
2018-03-30T23:07:57.843Z,5.89
2018-03-30T23:10:26.417Z,5.88
2018-03-30T23:12:54.813Z,5.87
2018-03-30T23:15:26.965Z,5.81
2018-03-30T23:17:56.862Z,5.87
2018-03-30T23:20:25.236Z,5.72
2018-03-30T23:22:53.605Z,5.72
2018-03-30T23:25:23.718Z,5.69
2018-03-30T23:27:52.114Z,5.68
2018-03-30T23:30:22.031Z,5.68
2018-03-30T23:32:50.412Z,5.65
2018-03-30T23:35:18.777Z,5.62
2018-03-30T23:37:47.175Z,5.61
2018-03-30T23:40:15.541Z,5.55
2018-03-30T23:42:43.869Z,5.58
2018-03-30T23:45:12.448Z,5.61
2018-03-30T23:47:40.757Z,5.65
2018-03-30T23:50:09.146Z,5.53
2018-03-30T23:52:37.499Z,5.56
2018-03-30T23:55:05.855Z,5.43
2018-03-30T23:57:34.211Z,5.49
